3MI1 weather

Volare North Heliport
Harrietta, Michigan, United States

Public forecast

Using degrees Fahrenheit for public forecast. Weather courtesy of forecast.io.

METAR (pilot weather report)

Closest report is Wexford County Airport, 13.2 nm (24.5 km) E. Retrieved 2019/09/21 11:37 UTC (20 minutes ago):

KCAD 211137Z AUTO 00000KT 5SM BR CLR 15/13 A3013 RMK AO2 T01500135

TAF (pilot weather forecast)

Closest forecast is Manistee Co Blacker Airport, 22.5 nm (41.7 km) W. Retrieved 2019/09/21 06:21 UTC (6 hours ago):

TAF KMBL 210520Z 2106/2206 VRB03KT 5SM BR FEW250 TEMPO 2106/2110 3SM BR SCT001 FM211300 16006KT P6SM SCT100 FM211800 20014G23KT P6SM VCSH BKN035 FM212200 19014G24KT P6SM VCSH BKN030 FM220100 20014G23KT 6SM SHRA BR OVC017 FM220300 20015G25KT 5SM SHRA BR OVC021